sensor_id;sensor_type;location;lat;lon;timestamp;pressure;altitude;pressure_sealevel;temperature;humidity
12666;BME280;58531;59.050;17.416;2022-12-20T00:00:51;100338.38;;;0.62;100.00
12666;BME280;58531;59.050;17.416;2022-12-20T00:03:18;100329.00;;;0.64;100.00
12666;BME280;58531;59.050;17.416;2022-12-20T00:05:46;100327.13;;;0.61;100.00
12666;BME280;58531;59.050;17.416;2022-12-20T00:08:13;100324.50;;;0.61;100.00
12666;BME280;58531;59.050;17.416;2022-12-20T00:10:42;100323.75;;;0.64;100.00
12666;BME280;58531;59.050;17.416;2022-12-20T00:13:09;100326.75;;;0.59;100.00
12666;BME280;58531;59.050;17.416;2022-12-20T00:15:36;100321.13;;;0.61;100.00
12666;BME280;58531;59.050;17.416;2022-12-20T00:18:05;100317.00;;;0.63;100.00
12666;BME280;58531;59.050;17.416;2022-12-20T00:20:31;100322.25;;;0.63;100.00
12666;BME280;58531;59.050;17.416;2022-12-20T00:22:58;100326.38;;;0.64;100.00
12666;BME280;58531;59.050;17.416;2022-12-20T00:25:25;100323.38;;;0.62;100.00
12666;BME280;58531;59.050;17.416;2022-12-20T00:27:52;100315.50;;;0.66;100.00
12666;BME280;58531;59.050;17.416;2022-12-20T00:30:19;100323.75;;;0.64;100.00
12666;BME280;58531;59.050;17.416;2022-12-20T00:32:46;100318.50;;;0.64;100.00
12666;BME280;58531;59.050;17.416;2022-12-20T00:35:14;100317.75;;;0.60;100.00
12666;BME280;58531;59.050;17.416;2022-12-20T00:37:41;100313.97;;;0.58;100.00
12666;BME280;58531;59.050;17.416;2022-12-20T00:40:08;100307.59;;;0.59;100.00
12666;BME280;58531;59.050;17.416;2022-12-20T00:42:35;100302.72;;;0.54;100.00
12666;BME280;58531;59.050;17.416;2022-12-20T00:45:02;100306.09;;;0.54;100.00
12666;BME280;58531;59.050;17.416;2022-12-20T00:47:29;100298.22;;;0.54;100.00
12666;BME280;58531;59.050;17.416;2022-12-20T00:49:56;100299.72;;;0.55;100.00
12666;BME280;58531;59.050;17.416;2022-12-20T00:52:24;100298.59;;;0.60;100.00
12666;BME280;58531;59.050;17.416;2022-12-20T00:54:50;100292.97;;;0.61;100.00
12666;BME280;58531;59.050;17.416;2022-12-20T00:57:17;100286.22;;;0.53;100.00
12666;BME280;58531;59.050;17.416;2022-12-20T00:59:44;100291.09;;;0.58;100.00
12666;BME280;58531;59.050;17.416;2022-12-20T01:02:10;100283.19;;;0.55;100.00
12666;BME280;58531;59.050;17.416;2022-12-20T01:04:37;100282.84;;;0.56;100.00
12666;BME280;58531;59.050;17.416;2022-12-20T01:07:04;100283.97;;;0.55;100.00
12666;BME280;58531;59.050;17.416;2022-12-20T01:09:32;100283.59;;;0.53;100.00
12666;BME280;58531;59.050;17.416;2022-12-20T01:11:59;100274.22;;;0.52;100.00
12666;BME280;58531;59.050;17.416;2022-12-20T01:14:26;100268.94;;;0.56;100.00
12666;BME280;58531;59.050;17.416;2022-12-20T01:16:52;100265.94;;;0.61;100.00
12666;BME280;58531;59.050;17.416;2022-12-20T01:19:19;100260.31;;;0.55;100.00
12666;BME280;58531;59.050;17.416;2022-12-20T01:21:46;100253.94;;;0.56;100.00
12666;BME280;58531;59.050;17.416;2022-12-20T01:24:14;100242.66;;;0.56;100.00
12666;BME280;58531;59.050;17.416;2022-12-20T01:26:42;100241.94;;;0.55;100.00
12666;BME280;58531;59.050;17.416;2022-12-20T01:29:09;100234.44;;;0.57;100.00
12666;BME280;58531;59.050;17.416;2022-12-20T01:31:36;100237.81;;;0.54;100.00
12666;BME280;58531;59.050;17.416;2022-12-20T01:34:03;100232.16;;;0.56;100.00
12666;BME280;58531;59.050;17.416;2022-12-20T01:36:32;100238.19;;;0.56;100.00
12666;BME280;58531;59.050;17.416;2022-12-20T01:39:02;100237.44;;;0.59;100.00
12666;BME280;58531;59.050;17.416;2022-12-20T01:41:30;100229.94;;;0.54;100.00
12666;BME280;58531;59.050;17.416;2022-12-20T01:44:02;100229.91;;;0.58;100.00
12666;BME280;58531;59.050;17.416;2022-12-20T01:46:31;100231.81;;;0.57;100.00
12666;BME280;58531;59.050;17.416;2022-12-20T01:49:01;100233.28;;;0.55;100.00
12666;BME280;58531;59.050;17.416;2022-12-20T01:51:33;100235.94;;;0.58;100.00
12666;BME280;58531;59.050;17.416;2022-12-20T01:54:04;100224.66;;;0.61;100.00
12666;BME280;58531;59.050;17.416;2022-12-20T01:56:32;100219.41;;;0.61;100.00
12666;BME280;58531;59.050;17.416;2022-12-20T01:59:01;100221.66;;;0.59;100.00
12666;BME280;58531;59.050;17.416;2022-12-20T02:01:27;100211.91;;;0.56;100.00
12666;BME280;58531;59.050;17.416;2022-12-20T02:03:55;100204.75;;;0.57;100.00
12666;BME280;58531;59.050;17.416;2022-12-20T02:06:24;100198.78;;;0.56;100.00
12666;BME280;58531;59.050;17.416;2022-12-20T02:08:55;100194.66;;;0.55;100.00
12666;BME280;58531;59.050;17.416;2022-12-20T02:14:29;100197.25;;;0.52;100.00
12666;BME280;58531;59.050;17.416;2022-12-20T02:17:04;100191.28;;;0.51;100.00
12666;BME280;58531;59.050;17.416;2022-12-20T02:20:03;100184.53;;;0.50;100.00
12666;BME280;58531;59.050;17.416;2022-12-20T02:22:43;100179.63;;;0.52;100.00
12666;BME280;58531;59.050;17.416;2022-12-20T02:25:45;100181.50;;;0.55;100.00
12666;BME280;58531;59.050;17.416;2022-12-20T02:28:30;100181.50;;;0.55;100.00
12666;BME280;58531;59.050;17.416;2022-12-20T02:31:10;100175.88;;;0.53;100.00
12666;BME280;58531;59.050;17.416;2022-12-20T02:33:41;100180.00;;;0.54;100.00
12666;BME280;58531;59.050;17.416;2022-12-20T02:36:09;100177.75;;;0.53;100.00
12666;BME280;58531;59.050;17.416;2022-12-20T02:38:37;100166.13;;;0.57;100.00
12666;BME280;58531;59.050;17.416;2022-12-20T02:41:06;100167.63;;;0.51;100.00
12666;BME280;58531;59.050;17.416;2022-12-20T02:43:35;100169.53;;;0.51;100.00
12666;BME280;58531;59.050;17.416;2022-12-20T02:46:25;100169.88;;;0.53;100.00
12666;BME280;58531;59.050;17.416;2022-12-20T02:48:55;100157.13;;;0.51;100.00
12666;BME280;58531;59.050;17.416;2022-12-20T02:51:25;100157.09;;;0.55;100.00
12666;BME280;58531;59.050;17.416;2022-12-20T02:53:54;100157.88;;;0.52;100.00
12666;BME280;58531;59.050;17.416;2022-12-20T02:56:26;100164.63;;;0.49;100.00
12666;BME280;58531;59.050;17.416;2022-12-20T02:58:59;100166.53;;;0.49;100.00
12666;BME280;58531;59.050;17.416;2022-12-20T03:01:31;100157.13;;;0.44;100.00
12666;BME280;58531;59.050;17.416;2022-12-20T03:03:59;100162.03;;;0.46;100.00
12666;BME280;58531;59.050;17.416;2022-12-20T03:06:26;100149.66;;;0.43;100.00
12666;BME280;58531;59.050;17.416;2022-12-20T03:08:55;100151.88;;;0.44;100.00
12666;BME280;58531;59.050;17.416;2022-12-20T03:11:21;100154.88;;;0.46;100.00
12666;BME280;58531;59.050;17.416;2022-12-20T03:13:48;100144.78;;;0.45;100.00
12666;BME280;58531;59.050;17.416;2022-12-20T03:16:15;100145.13;;;0.43;100.00
12666;BME280;58531;59.050;17.416;2022-12-20T03:18:43;100144.38;;;0.46;100.00
12666;BME280;58531;59.050;17.416;2022-12-20T03:21:10;100148.50;;;0.47;100.00
12666;BME280;58531;59.050;17.416;2022-12-20T03:23:37;100134.25;;;0.48;100.00
12666;BME280;58531;59.050;17.416;2022-12-20T03:26:04;100126.72;;;0.50;100.00
12666;BME280;58531;59.050;17.416;2022-12-20T03:28:30;100135.75;;;0.49;100.00
12666;BME280;58531;59.050;17.416;2022-12-20T03:30:57;100121.88;;;0.49;100.00
12666;BME280;58531;59.050;17.416;2022-12-20T03:33:24;100137.63;;;0.52;100.00
12666;BME280;58531;59.050;17.416;2022-12-20T03:35:52;100122.97;;;0.51;100.00
12666;BME280;58531;59.050;17.416;2022-12-20T03:38:19;100121.84;;;0.52;100.00
12666;BME280;58531;59.050;17.416;2022-12-20T03:40:45;100116.59;;;0.52;100.00
12666;BME280;58531;59.050;17.416;2022-12-20T03:43:12;100110.59;;;0.55;100.00
12666;BME280;58531;59.050;17.416;2022-12-20T03:45:39;100109.84;;;0.51;100.00
12666;BME280;58531;59.050;17.416;2022-12-20T03:48:06;100104.97;;;0.53;100.00
12666;BME280;58531;59.050;17.416;2022-12-20T03:50:33;100108.34;;;0.57;100.00
12666;BME280;58531;59.050;17.416;2022-12-20T03:53:02;100100.09;;;0.55;100.00
12666;BME280;58531;59.050;17.416;2022-12-20T03:55:29;100101.56;;;0.56;100.00
12666;BME280;58531;59.050;17.416;2022-12-20T03:57:56;100098.56;;;0.58;100.00
12666;BME280;58531;59.050;17.416;2022-12-20T04:00:22;100099.31;;;0.58;100.00
12666;BME280;58531;59.050;17.416;2022-12-20T04:02:49;100089.56;;;0.55;100.00
12666;BME280;58531;59.050;17.416;2022-12-20T04:05:16;100087.31;;;0.57;100.00
12666;BME280;58531;59.050;17.416;2022-12-20T04:07:43;100079.78;;;0.63;100.00
12666;BME280;58531;59.050;17.416;2022-12-20T04:10:12;100080.53;;;0.60;100.00
12666;BME280;58531;59.050;17.416;2022-12-20T04:12:39;100078.31;;;0.58;100.00
12666;BME280;58531;59.050;17.416;2022-12-20T04:15:06;100081.66;;;0.59;100.00
12666;BME280;58531;59.050;17.416;2022-12-20T04:17:33;100078.69;;;0.60;100.00
12666;BME280;58531;59.050;17.416;2022-12-20T04:20:00;100077.19;;;0.52;100.00
12666;BME280;58531;59.050;17.416;2022-12-20T04:22:43;100075.31;;;0.56;100.00
12666;BME280;58531;59.050;17.416;2022-12-20T04:25:09;100073.06;;;0.58;100.00
12666;BME280;58531;59.050;17.416;2022-12-20T04:27:38;100069.69;;;0.54;100.00
12666;BME280;58531;59.050;17.416;2022-12-20T04:30:05;100076.03;;;0.57;100.00
12666;BME280;58531;59.050;17.416;2022-12-20T04:32:32;100064.44;;;0.54;100.00
12666;BME280;58531;59.050;17.416;2022-12-20T04:34:59;100067.78;;;0.55;100.00
12666;BME280;58531;59.050;17.416;2022-12-20T04:37:26;100061.03;;;0.57;100.00
12666;BME280;58531;59.050;17.416;2022-12-20T04:39:53;100059.56;;;0.56;100.00
12666;BME280;58531;59.050;17.416;2022-12-20T04:42:20;100055.06;;;0.53;100.00
12666;BME280;58531;59.050;17.416;2022-12-20T04:44:48;100056.56;;;0.54;100.00
12666;BME280;58531;59.050;17.416;2022-12-20T04:47:15;100053.56;;;0.52;100.00
12666;BME280;58531;59.050;17.416;2022-12-20T04:49:42;100053.56;;;0.52;100.00
12666;BME280;58531;59.050;17.416;2022-12-20T04:52:09;100056.56;;;0.51;100.00
12666;BME280;58531;59.050;17.416;2022-12-20T04:54:52;100055.06;;;0.46;100.00
12666;BME280;58531;59.050;17.416;2022-12-20T04:57:19;100054.31;;;0.49;100.00
12666;BME280;58531;59.050;17.416;2022-12-20T04:59:46;100063.69;;;0.50;100.00
12666;BME280;58531;59.050;17.416;2022-12-20T05:02:14;100057.31;;;0.51;100.00
12666;BME280;58531;59.050;17.416;2022-12-20T05:04:41;100058.41;;;0.54;100.00
12666;BME280;58531;59.050;17.416;2022-12-20T05:07:08;100058.03;;;0.52;100.00
12666;BME280;58531;59.050;17.416;2022-12-20T05:09:34;100052.78;;;0.52;100.00
12666;BME280;58531;59.050;17.416;2022-12-20T05:12:01;100048.28;;;0.56;100.00
12666;BME280;58531;59.050;17.416;2022-12-20T05:14:28;100046.03;;;0.54;100.00
12666;BME280;58531;59.050;17.416;2022-12-20T05:16:56;100047.53;;;0.55;100.00
12666;BME280;58531;59.050;17.416;2022-12-20T05:19:24;100044.53;;;0.57;100.00
12666;BME280;58531;59.050;17.416;2022-12-20T05:21:51;100031.38;;;0.57;100.00
12666;BME280;58531;59.050;17.416;2022-12-20T05:24:35;100029.53;;;0.57;100.00
12666;BME280;58531;59.050;17.416;2022-12-20T05:27:19;100026.13;;;0.60;100.00
12666;BME280;58531;59.050;17.416;2022-12-20T05:29:45;100034.78;;;0.57;100.00
12666;BME280;58531;59.050;17.416;2022-12-20T05:32:12;100033.25;;;0.60;100.00
12666;BME280;58531;59.050;17.416;2022-12-20T05:34:40;100038.50;;;0.63;100.00
12666;BME280;58531;59.050;17.416;2022-12-20T05:37:07;100030.25;;;0.61;100.00
12666;BME280;58531;59.050;17.416;2022-12-20T05:39:34;100031.75;;;0.62;100.00
12666;BME280;58531;59.050;17.416;2022-12-20T05:42:00;100038.50;;;0.63;100.00
12666;BME280;58531;59.050;17.416;2022-12-20T05:44:27;100028.75;;;0.64;100.00
12666;BME280;58531;59.050;17.416;2022-12-20T05:46:54;100034.75;;;0.64;100.00
12666;BME280;58531;59.050;17.416;2022-12-20T05:49:21;100034.00;;;0.67;100.00
12666;BME280;58531;59.050;17.416;2022-12-20T05:51:49;100038.47;;;0.67;100.00
12666;BME280;58531;59.050;17.416;2022-12-20T05:54:15;100035.50;;;0.68;100.00
12666;BME280;58531;59.050;17.416;2022-12-20T05:56:42;100030.97;;;0.69;100.00
12666;BME280;58531;59.050;17.416;2022-12-20T05:59:09;100039.97;;;0.68;100.00
12666;BME280;58531;59.050;17.416;2022-12-20T06:01:36;100030.97;;;0.69;100.00
12666;BME280;58531;59.050;17.416;2022-12-20T06:04:02;100037.72;;;0.70;100.00
12666;BME280;58531;59.050;17.416;2022-12-20T06:06:29;100036.22;;;0.72;100.00
12666;BME280;58531;59.050;17.416;2022-12-20T06:08:57;100037.72;;;0.70;100.00
12666;BME280;58531;59.050;17.416;2022-12-20T06:11:24;100032.84;;;0.68;100.00
12666;BME280;58531;59.050;17.416;2022-12-20T06:13:51;100032.47;;;0.73;100.00
12666;BME280;58531;59.050;17.416;2022-12-20T06:16:18;100032.47;;;0.73;100.00
12666;BME280;58531;59.050;17.416;2022-12-20T06:18:47;100032.47;;;0.73;100.00
12666;BME280;58531;59.050;17.416;2022-12-20T06:21:14;100031.69;;;0.76;100.00
12666;BME280;58531;59.050;17.416;2022-12-20T06:23:41;100032.47;;;0.73;100.00
12666;BME280;58531;59.050;17.416;2022-12-20T06:26:09;100029.44;;;0.75;100.00
12666;BME280;58531;59.050;17.416;2022-12-20T06:28:36;100024.16;;;0.78;100.00
12666;BME280;58531;59.050;17.416;2022-12-20T06:31:08;100019.72;;;0.68;100.00
12666;BME280;58531;59.050;17.416;2022-12-20T06:33:35;100029.84;;;0.73;100.00
12666;BME280;58531;59.050;17.416;2022-12-20T06:36:02;100021.59;;;0.71;100.00
12666;BME280;58531;59.050;17.416;2022-12-20T06:38:29;100017.06;;;0.72;100.00
12666;BME280;58531;59.050;17.416;2022-12-20T06:40:56;100015.19;;;0.72;100.00
12666;BME280;58531;59.050;17.416;2022-12-20T06:43:24;100014.44;;;0.75;100.00
12666;BME280;58531;59.050;17.416;2022-12-20T06:45:51;100015.16;;;0.79;100.00
12666;BME280;58531;59.050;17.416;2022-12-20T06:48:17;100015.53;;;0.78;100.00
12666;BME280;58531;59.050;17.416;2022-12-20T06:50:47;100015.94;;;0.76;100.00
12666;BME280;58531;59.050;17.416;2022-12-20T06:53:13;100003.13;;;0.78;100.00
12666;BME280;58531;59.050;17.416;2022-12-20T06:55:41;100017.38;;;0.84;100.00
12666;BME280;58531;59.050;17.416;2022-12-20T06:58:08;100015.53;;;0.78;100.00
12666;BME280;58531;59.050;17.416;2022-12-20T07:00:36;100010.63;;;0.83;100.00
12666;BME280;58531;59.050;17.416;2022-12-20T07:03:03;100014.00;;;0.84;100.00
12666;BME280;58531;59.050;17.416;2022-12-20T07:05:29;100023.41;;;0.85;100.00
12666;BME280;58531;59.050;17.416;2022-12-20T07:07:57;100021.53;;;0.82;100.00
12666;BME280;58531;59.050;17.416;2022-12-20T07:10:23;100016.28;;;0.82;100.00
12666;BME280;58531;59.050;17.416;2022-12-20T07:12:51;100020.41;;;0.83;100.00
12666;BME280;58531;59.050;17.416;2022-12-20T07:15:18;100020.75;;;0.81;100.00
12666;BME280;58531;59.050;17.416;2022-12-20T07:17:47;100023.75;;;0.87;100.00
12666;BME280;58531;59.050;17.416;2022-12-20T07:20:15;100027.13;;;0.87;100.00
12666;BME280;58531;59.050;17.416;2022-12-20T07:22:42;100027.13;;;0.87;100.00
12666;BME280;58531;59.050;17.416;2022-12-20T07:25:09;100025.25;;;0.84;100.00
12666;BME280;58531;59.050;17.416;2022-12-20T07:27:36;100017.75;;;0.86;100.00
12666;BME280;58531;59.050;17.416;2022-12-20T07:30:03;100012.13;;;0.88;100.00
12666;BME280;58531;59.050;17.416;2022-12-20T07:32:30;100010.63;;;0.87;100.00
12666;BME280;58531;59.050;17.416;2022-12-20T07:34:59;100017.34;;;0.91;100.00
12666;BME280;58531;59.050;17.416;2022-12-20T07:37:27;100014.72;;;0.91;100.00
12666;BME280;58531;59.050;17.416;2022-12-20T07:39:54;100006.47;;;0.93;100.00
12666;BME280;58531;59.050;17.416;2022-12-20T07:42:21;100016.56;;;0.98;100.00
12666;BME280;58531;59.050;17.416;2022-12-20T07:44:48;100004.94;;;0.95;100.00
12666;BME280;58531;59.050;17.416;2022-12-20T07:47:14;100004.94;;;0.95;100.00
12666;BME280;58531;59.050;17.416;2022-12-20T07:49:41;99997.41;;;0.97;100.00
12666;BME280;58531;59.050;17.416;2022-12-20T07:52:10;100003.03;;;0.99;100.00
12666;BME280;58531;59.050;17.416;2022-12-20T07:54:42;100006.06;;;0.98;100.00
12666;BME280;58531;59.050;17.416;2022-12-20T07:57:12;100003.41;;;1.01;100.00
12666;BME280;58531;59.050;17.416;2022-12-20T07:59:45;100003.34;;;1.05;100.00
12666;BME280;58531;59.050;17.416;2022-12-20T08:02:15;100003.75;;;1.03;100.00
12666;BME280;58531;59.050;17.416;2022-12-20T08:04:45;100003.00;;;1.06;100.00
12666;BME280;58531;59.050;17.416;2022-12-20T08:07:14;100009.75;;;1.07;100.00
12666;BME280;58531;59.050;17.416;2022-12-20T08:09:43;100003.34;;;1.08;100.00
12666;BME280;58531;59.050;17.416;2022-12-20T08:12:13;100000.69;;;1.12;100.00
12666;BME280;58531;59.050;17.416;2022-12-20T08:14:41;100001.47;;;1.09;100.00
12666;BME280;58531;59.050;17.416;2022-12-20T08:17:08;100003.72;;;1.10;100.00
12666;BME280;58531;59.050;17.416;2022-12-20T08:19:36;99999.19;;;1.11;100.00
12666;BME280;58531;59.050;17.416;2022-12-20T08:22:03;100008.16;;;1.16;100.00
12666;BME280;58531;59.050;17.416;2022-12-20T08:24:32;100003.34;;;1.08;100.00
12666;BME280;58531;59.050;17.416;2022-12-20T08:26:59;100001.06;;;1.13;100.00
12666;BME280;58531;59.050;17.416;2022-12-20T08:29:26;100001.38;;;1.22;100.00
12666;BME280;58531;59.050;17.416;2022-12-20T08:31:52;99991.63;;;1.23;100.00
12666;BME280;58531;59.050;17.416;2022-12-20T08:34:19;99990.13;;;1.18;100.00
12666;BME280;58531;59.050;17.416;2022-12-20T08:36:46;99978.88;;;1.18;100.00
12666;BME280;58531;59.050;17.416;2022-12-20T08:39:12;99983.00;;;1.19;100.00
12666;BME280;58531;59.050;17.416;2022-12-20T08:41:41;99983.38;;;1.17;100.00
12666;BME280;58531;59.050;17.416;2022-12-20T08:44:07;99979.59;;;1.22;100.00
12666;BME280;58531;59.050;17.416;2022-12-20T08:46:35;99987.09;;;1.23;100.00
12666;BME280;58531;59.050;17.416;2022-12-20T08:49:02;99985.19;;;1.27;100.00
12666;BME280;58531;59.050;17.416;2022-12-20T08:51:28;99993.81;;;1.28;100.00
12666;BME280;58531;59.050;17.416;2022-12-20T08:53:55;100000.56;;;1.29;100.00
12666;BME280;58531;59.050;17.416;2022-12-20T08:56:22;99987.41;;;1.29;100.00
12666;BME280;58531;59.050;17.416;2022-12-20T08:58:51;99990.81;;;1.29;100.00
12666;BME280;58531;59.050;17.416;2022-12-20T09:01:19;99983.28;;;1.28;100.00
12666;BME280;58531;59.050;17.416;2022-12-20T09:03:47;99991.19;;;1.28;100.00
12666;BME280;58531;59.050;17.416;2022-12-20T09:06:16;99978.75;;;1.32;100.00
12666;BME280;58531;59.050;17.416;2022-12-20T09:08:44;99965.59;;;1.35;100.00
12666;BME280;58531;59.050;17.416;2022-12-20T09:11:13;99983.22;;;1.38;100.00
12666;BME280;58531;59.050;17.416;2022-12-20T09:13:41;99988.47;;;1.38;100.00
12666;BME280;58531;59.050;17.416;2022-12-20T09:16:11;99986.22;;;1.37;100.00
12666;BME280;58531;59.050;17.416;2022-12-20T09:18:38;99989.94;;;1.43;100.00
12666;BME280;58531;59.050;17.416;2022-12-20T09:21:05;99984.69;;;1.43;100.00
12666;BME280;58531;59.050;17.416;2022-12-20T09:23:33;99990.66;;;1.47;100.00
12666;BME280;58531;59.050;17.416;2022-12-20T09:26:01;99983.53;;;1.44;100.00
12666;BME280;58531;59.050;17.416;2022-12-20T09:28:29;99986.19;;;1.44;100.00
12666;BME280;58531;59.050;17.416;2022-12-20T09:30:57;99976.41;;;1.44;100.00
12666;BME280;58531;59.050;17.416;2022-12-20T09:33:26;99974.16;;;1.46;100.00
12666;BME280;58531;59.050;17.416;2022-12-20T09:35:55;99980.50;;;1.49;100.00
12666;BME280;58531;59.050;17.416;2022-12-20T09:38:22;99983.91;;;1.49;100.00
12666;BME280;58531;59.050;17.416;2022-12-20T09:40:52;99975.59;;;1.51;100.00
12666;BME280;58531;59.050;17.416;2022-12-20T09:43:20;99977.81;;;1.56;100.00
12666;BME280;58531;59.050;17.416;2022-12-20T09:45:51;99978.91;;;1.58;100.00
12666;BME280;58531;59.050;17.416;2022-12-20T09:48:20;99975.50;;;1.61;100.00
12666;BME280;58531;59.050;17.416;2022-12-20T09:50:58;99977.41;;;1.61;100.00
12666;BME280;58531;59.050;17.416;2022-12-20T09:53:37;99977.34;;;1.64;100.00
12666;BME280;58531;59.050;17.416;2022-12-20T09:56:12;99962.69;;;1.67;100.00
12666;BME280;58531;59.050;17.416;2022-12-20T09:58:56;99957.34;;;1.74;100.00
12666;BME280;58531;59.050;17.416;2022-12-20T10:01:25;99961.75;;;1.84;100.00
12666;BME280;58531;59.050;17.416;2022-12-20T10:03:53;99958.69;;;1.89;100.00
12666;BME280;58531;59.050;17.416;2022-12-20T10:06:31;99952.34;;;1.86;100.00
12666;BME280;58531;59.050;17.416;2022-12-20T10:09:03;99952.72;;;1.85;100.00
12666;BME280;58531;59.050;17.416;2022-12-20T10:11:44;99962.06;;;1.89;100.00
12666;BME280;58531;59.050;17.416;2022-12-20T10:17:15;99945.16;;;1.87;100.00
12666;BME280;58531;59.050;17.416;2022-12-20T10:20:04;99948.16;;;1.89;100.00
12666;BME280;58531;59.050;17.416;2022-12-20T10:22:38;99960.91;;;1.94;100.00
12666;BME280;58531;59.050;17.416;2022-12-20T10:25:15;99950.72;;;1.96;100.00
12666;BME280;58531;59.050;17.416;2022-12-20T10:27:43;99951.78;;;2.02;100.00
12666;BME280;58531;59.050;17.416;2022-12-20T10:30:12;99952.13;;;2.04;100.00
12666;BME280;58531;59.050;17.416;2022-12-20T10:32:42;99944.03;;;2.21;100.00
12666;BME280;58531;59.050;17.416;2022-12-20T10:35:26;99946.88;;;2.33;100.00
12666;BME280;58531;59.050;17.416;2022-12-20T10:38:00;99952.41;;;2.42;100.00
12666;BME280;58531;59.050;17.416;2022-12-20T10:40:31;99955.06;;;2.42;100.00
12666;BME280;58531;59.050;17.416;2022-12-20T10:43:00;99947.50;;;2.44;100.00
12666;BME280;58531;59.050;17.416;2022-12-20T10:45:32;99944.50;;;2.46;100.00
12666;BME280;58531;59.050;17.416;2022-12-20T10:48:01;99940.28;;;2.52;100.00
12666;BME280;58531;59.050;17.416;2022-12-20T10:50:29;99944.88;;;2.44;100.00
12666;BME280;58531;59.050;17.416;2022-12-20T10:53:20;99944.97;;;2.37;100.00
12666;BME280;58531;59.050;17.416;2022-12-20T10:55:47;99953.22;;;2.39;100.00
12666;BME280;58531;59.050;17.416;2022-12-20T10:58:16;99951.38;;;2.36;100.00
12666;BME280;58531;59.050;17.416;2022-12-20T11:00:43;99944.16;;;2.40;100.00
12666;BME280;58531;59.050;17.416;2022-12-20T11:03:14;99939.56;;;2.48;100.00
12666;BME280;58531;59.050;17.416;2022-12-20T11:05:53;99941.88;;;2.42;100.00
12666;BME280;58531;59.050;17.416;2022-12-20T11:08:22;99933.19;;;2.45;100.00
12666;BME280;58531;59.050;17.416;2022-12-20T11:11:09;99930.91;;;2.47;100.00
12666;BME280;58531;59.050;17.416;2022-12-20T11:13:37;99939.94;;;2.46;100.00
12666;BME280;58531;59.050;17.416;2022-12-20T11:16:05;99930.91;;;2.47;100.00
12666;BME280;58531;59.050;17.416;2022-12-20T11:18:39;99931.59;;;2.51;100.00
12666;BME280;58531;59.050;17.416;2022-12-20T11:21:20;99929.22;;;2.60;100.00
12666;BME280;58531;59.050;17.416;2022-12-20T11:23:57;99933.88;;;2.53;100.00
12666;BME280;58531;59.050;17.416;2022-12-20T11:26:39;99943.56;;;2.59;100.00
12666;BME280;58531;59.050;17.416;2022-12-20T11:29:19;99935.66;;;2.59;100.00
12666;BME280;58531;59.050;17.416;2022-12-20T11:31:57;99946.19;;;2.59;100.00
12666;BME280;58531;59.050;17.416;2022-12-20T11:34:36;99945.03;;;2.60;100.00
12666;BME280;58531;59.050;17.416;2022-12-20T11:37:17;99947.69;;;2.60;100.00
12666;BME280;58531;59.050;17.416;2022-12-20T11:39:55;99946.47;;;2.65;100.00
12666;BME280;58531;59.050;17.416;2022-12-20T11:42:29;99935.94;;;2.65;100.00
12666;BME280;58531;59.050;17.416;2022-12-20T11:45:07;99927.28;;;2.64;100.00
12666;BME280;58531;59.050;17.416;2022-12-20T11:47:53;99928.44;;;2.63;100.00
12666;BME280;58531;59.050;17.416;2022-12-20T11:53:29;99917.81;;;2.70;100.00
12666;BME280;58531;59.050;17.416;2022-12-20T11:56:03;99909.47;;;2.72;100.00
12666;BME280;58531;59.050;17.416;2022-12-20T11:58:44;99907.16;;;2.77;100.00
12666;BME280;58531;59.050;17.416;2022-12-20T12:01:15;99912.31;;;2.84;100.00
12666;BME280;58531;59.050;17.416;2022-12-20T12:03:47;99908.16;;;2.83;100.00
12666;BME280;58531;59.050;17.416;2022-12-20T12:06:22;99904.69;;;2.90;100.00
12666;BME280;58531;59.050;17.416;2022-12-20T12:08:54;99905.34;;;2.97;100.00
12666;BME280;58531;59.050;17.416;2022-12-20T12:11:28;99894.69;;;3.04;100.00
12666;BME280;58531;59.050;17.416;2022-12-20T12:13:58;99893.06;;;3.10;100.00
12666;BME280;58531;59.050;17.416;2022-12-20T12:16:30;99884.75;;;3.12;100.00
12666;BME280;58531;59.050;17.416;2022-12-20T12:19:00;99888.72;;;3.00;100.00
12666;BME280;58531;59.050;17.416;2022-12-20T12:21:31;99889.41;;;3.04;100.00
12666;BME280;58531;59.050;17.416;2022-12-20T12:24:04;99885.63;;;3.05;100.00
12666;BME280;58531;59.050;17.416;2022-12-20T12:26:36;99884.00;;;3.11;100.00
12666;BME280;58531;59.050;17.416;2022-12-20T12:29:09;99882.78;;;3.16;100.00
12666;BME280;58531;59.050;17.416;2022-12-20T12:31:39;99891.47;;;3.16;100.00
12666;BME280;58531;59.050;17.416;2022-12-20T12:34:16;99905.81;;;3.15;100.00
12666;BME280;58531;59.050;17.416;2022-12-20T12:37:18;99903.56;;;3.14;100.00
12666;BME280;58531;59.050;17.416;2022-12-20T12:40:13;99908.28;;;3.03;100.00
12666;BME280;58531;59.050;17.416;2022-12-20T12:43:12;99904.50;;;3.04;100.00
12666;BME280;58531;59.050;17.416;2022-12-20T12:45:47;99908.50;;;3.12;100.00
12666;BME280;58531;59.050;17.416;2022-12-20T12:48:18;99898.34;;;3.10;100.00
12666;BME280;58531;59.050;17.416;2022-12-20T12:50:49;99909.59;;;3.14;100.00
12666;BME280;58531;59.050;17.416;2022-12-20T12:53:20;99919.38;;;3.14;100.00
12666;BME280;58531;59.050;17.416;2022-12-20T12:55:49;99918.66;;;3.13;100.00
12666;BME280;58531;59.050;17.416;2022-12-20T12:58:42;99916.41;;;3.12;100.00
12666;BME280;58531;59.050;17.416;2022-12-20T13:01:09;99915.94;;;3.17;100.00
12666;BME280;58531;59.050;17.416;2022-12-20T13:03:40;99904.66;;;3.16;100.00
12666;BME280;58531;59.050;17.416;2022-12-20T13:09:42;99887.34;;;3.15;100.00